<?xml version="1.0" encoding="utf-8"?>
<gpx xmlns:xsi="http://www.w3.org/2001/XMLSchema-instance" xmlns:xsd="http://www.w3.org/2001/XMLSchema" version="1.1" creator="Shapelink.com" xmlns="http://www.topografix.com/GPX/1/1" xmlns:gpxtpx="http://www.garmin.com/xmlschemas/TrackPointExtension/v1">
  <metadata>
    <name>Ejecutar 5.50 km, 2019-10-22</name>
    <desc></desc>
    <author><name>Per Rooth</name></author> 
    <time>2019-10-22T18:07:52Z</time>
  </metadata>
  <trk>
    <name>Ejecutar 5.50 km, 2019-10-22</name>
    <trkseg>
      <trkpt lat="56.891464382435" lon="14.823859033486">
        <ele>172.6</ele>
        <time>2019-10-22T18:07:52Z</time>
      </trkpt>
      <trkpt lat="56.89136757149" lon="14.82352761316">
        <ele>173</ele>
        <time>2019-10-22T18:07:58Z</time>
      </trkpt>
      <trkpt lat="56.89132985294" lon="14.823170628039">
        <ele>173.2</ele>
        <time>2019-10-22T18:08:06Z</time>
      </trkpt>
      <trkpt lat="56.891428675541" lon="14.822942137445">
        <ele>173</ele>
        <time>2019-10-22T18:08:12Z</time>
      </trkpt>
      <trkpt lat="56.891519451518" lon="14.822942472721">
        <ele>173.4</ele>
        <time>2019-10-22T18:08:15Z</time>
      </trkpt>
      <trkpt lat="56.891723886059" lon="14.822919673953">
        <ele>173.2</ele>
        <time>2019-10-22T18:08:23Z</time>
      </trkpt>
      <trkpt lat="56.891905940927" lon="14.822861503567">
        <ele>172.8</ele>
        <time>2019-10-22T18:08:29Z</time>
      </trkpt>
      <trkpt lat="56.892083050474" lon="14.822900563221">
        <ele>172.8</ele>
        <time>2019-10-22T18:08:38Z</time>
      </trkpt>
      <trkpt lat="56.892271810862" lon="14.822862341757">
        <ele>172.4</ele>
        <time>2019-10-22T18:08:45Z</time>
      </trkpt>
      <trkpt lat="56.892466270942" lon="14.822821102809">
        <ele>172</ele>
        <time>2019-10-22T18:08:52Z</time>
      </trkpt>
      <trkpt lat="56.892608763242" lon="14.82279419691">
        <ele>171.6</ele>
        <time>2019-10-22T18:08:57Z</time>
      </trkpt>
      <trkpt lat="56.892799870562" lon="14.822779612404">
        <ele>171.4</ele>
        <time>2019-10-22T18:09:03Z</time>
      </trkpt>
      <trkpt lat="56.892857538034" lon="14.822775421454">
        <ele>171.2</ele>
        <time>2019-10-22T18:09:05Z</time>
      </trkpt>
      <trkpt lat="56.893048310078" lon="14.822772571608">
        <ele>171</ele>
        <time>2019-10-22T18:09:12Z</time>
      </trkpt>
      <trkpt lat="56.893238243932" lon="14.822763351518">
        <ele>170.8</ele>
        <time>2019-10-22T18:09:19Z</time>
      </trkpt>
      <trkpt lat="56.8934286807" lon="14.822762513328">
        <ele>170.4</ele>
        <time>2019-10-22T18:09:26Z</time>
      </trkpt>
      <trkpt lat="56.89354938006" lon="14.822753796152">
        <ele>170.2</ele>
        <time>2019-10-22T18:09:30Z</time>
      </trkpt>
      <trkpt lat="56.893745851796" lon="14.822727560805">
        <ele>170.2</ele>
        <time>2019-10-22T18:09:37Z</time>
      </trkpt>
      <trkpt lat="56.893937881125" lon="14.82277491854">
        <ele>169.8</ele>
        <time>2019-10-22T18:09:44Z</time>
      </trkpt>
      <trkpt lat="56.894112057007" lon="14.822905927637">
        <ele>169.8</ele>
        <time>2019-10-22T18:09:51Z</time>
      </trkpt>
      <trkpt lat="56.894274079134" lon="14.823109104893">
        <ele>170.2</ele>
        <time>2019-10-22T18:09:58Z</time>
      </trkpt>
      <trkpt lat="56.894378098513" lon="14.823292417046">
        <ele>170.4</ele>
        <time>2019-10-22T18:10:03Z</time>
      </trkpt>
      <trkpt lat="56.894489913059" lon="14.82357874275">
        <ele>170.2</ele>
        <time>2019-10-22T18:10:10Z</time>
      </trkpt>
      <trkpt lat="56.894589909126" lon="14.823870265232">
        <ele>170</ele>
        <time>2019-10-22T18:10:17Z</time>
      </trkpt>
      <trkpt lat="56.894695688704" lon="14.824174109107">
        <ele>170.4</ele>
        <time>2019-10-22T18:10:25Z</time>
      </trkpt>
      <trkpt lat="56.894812783847" lon="14.824470493091">
        <ele>170.4</ele>
        <time>2019-10-22T18:10:32Z</time>
      </trkpt>
      <trkpt lat="56.89493574632" lon="14.824763524315">
        <ele>170.4</ele>
        <time>2019-10-22T18:10:39Z</time>
      </trkpt>
      <trkpt lat="56.895051165083" lon="14.825051107304">
        <ele>170.2</ele>
        <time>2019-10-22T18:10:46Z</time>
      </trkpt>
      <trkpt lat="56.895170523339" lon="14.825298540992">
        <ele>170.2</ele>
        <time>2019-10-22T18:10:52Z</time>
      </trkpt>
      <trkpt lat="56.895309327603" lon="14.825558882806">
        <ele>170.2</ele>
        <time>2019-10-22T18:10:59Z</time>
      </trkpt>
      <trkpt lat="56.895458022509" lon="14.825813441109">
        <ele>169.8</ele>
        <time>2019-10-22T18:11:06Z</time>
      </trkpt>
      <trkpt lat="56.895479480173" lon="14.825846633433">
        <ele>169.8</ele>
        <time>2019-10-22T18:11:07Z</time>
      </trkpt>
      <trkpt lat="56.895642424309" lon="14.826042015522">
        <ele>169.8</ele>
        <time>2019-10-22T18:11:14Z</time>
      </trkpt>
      <trkpt lat="56.89581165487" lon="14.826219208888">
        <ele>169.4</ele>
        <time>2019-10-22T18:11:21Z</time>
      </trkpt>
      <trkpt lat="56.895936042266" lon="14.826319707869">
        <ele>169.2</ele>
        <time>2019-10-22T18:11:26Z</time>
      </trkpt>
      <trkpt lat="56.896127065767" lon="14.826423224334">
        <ele>169.4</ele>
        <time>2019-10-22T18:11:34Z</time>
      </trkpt>
      <trkpt lat="56.896312473395" lon="14.826425822723">
        <ele>169.4</ele>
        <time>2019-10-22T18:11:42Z</time>
      </trkpt>
      <trkpt lat="56.89649477972" lon="14.826316522747">
        <ele>169.6</ele>
        <time>2019-10-22T18:11:51Z</time>
      </trkpt>
      <trkpt lat="56.896652610897" lon="14.826135473707">
        <ele>170</ele>
        <time>2019-10-22T18:11:58Z</time>
      </trkpt>
      <trkpt lat="56.896673900923" lon="14.826102784297">
        <ele>170.2</ele>
        <time>2019-10-22T18:11:59Z</time>
      </trkpt>
      <trkpt lat="56.896836342145" lon="14.825867504364">
        <ele>170</ele>
        <time>2019-10-22T18:12:07Z</time>
      </trkpt>
      <trkpt lat="56.897009679837" lon="14.825717216897">
        <ele>170</ele>
        <time>2019-10-22T18:12:14Z</time>
      </trkpt>
      <trkpt lat="56.897039351763" lon="14.82570942173">
        <ele>170</ele>
        <time>2019-10-22T18:12:15Z</time>
      </trkpt>
      <trkpt lat="56.897220065527" lon="14.825712606852">
        <ele>169.8</ele>
        <time>2019-10-22T18:12:21Z</time>
      </trkpt>
      <trkpt lat="56.897425673534" lon="14.825825511045">
        <ele>169.8</ele>
        <time>2019-10-22T18:12:27Z</time>
      </trkpt>
      <trkpt lat="56.897601358158" lon="14.82598183348">
        <ele>169.6</ele>
        <time>2019-10-22T18:12:33Z</time>
      </trkpt>
      <trkpt lat="56.89778643051" lon="14.826111166197">
        <ele>169.8</ele>
        <time>2019-10-22T18:12:39Z</time>
      </trkpt>
      <trkpt lat="56.897971083767" lon="14.826277882188">
        <ele>170</ele>
        <time>2019-10-22T18:12:46Z</time>
      </trkpt>
      <trkpt lat="56.898142325984" lon="14.826464798558">
        <ele>170</ele>
        <time>2019-10-22T18:12:53Z</time>
      </trkpt>
      <trkpt lat="56.898312730011" lon="14.826637884793">
        <ele>169.6</ele>
        <time>2019-10-22T18:13:00Z</time>
      </trkpt>
      <trkpt lat="56.898490258653" lon="14.8268351109">
        <ele>169.6</ele>
        <time>2019-10-22T18:13:08Z</time>
      </trkpt>
      <trkpt lat="56.898637109541" lon="14.827076844896">
        <ele>169.4</ele>
        <time>2019-10-22T18:13:15Z</time>
      </trkpt>
      <trkpt lat="56.898753031218" lon="14.827290667165">
        <ele>169.2</ele>
        <time>2019-10-22T18:13:21Z</time>
      </trkpt>
      <trkpt lat="56.898888985636" lon="14.827524019261">
        <ele>169.2</ele>
        <time>2019-10-22T18:13:28Z</time>
      </trkpt>
      <trkpt lat="56.899011612833" lon="14.82772610687">
        <ele>169.4</ele>
        <time>2019-10-22T18:13:34Z</time>
      </trkpt>
      <trkpt lat="56.899118984972" lon="14.82802869346">
        <ele>169.8</ele>
        <time>2019-10-22T18:13:41Z</time>
      </trkpt>
      <trkpt lat="56.89922392636" lon="14.828336225371">
        <ele>169.8</ele>
        <time>2019-10-22T18:13:48Z</time>
      </trkpt>
      <trkpt lat="56.899325095893" lon="14.82866655605">
        <ele>169.6</ele>
        <time>2019-10-22T18:13:53Z</time>
      </trkpt>
      <trkpt lat="56.899462726691" lon="14.828913570643">
        <ele>169.4</ele>
        <time>2019-10-22T18:13:59Z</time>
      </trkpt>
      <trkpt lat="56.899641093523" lon="14.829017590022">
        <ele>169.6</ele>
        <time>2019-10-22T18:14:06Z</time>
      </trkpt>
      <trkpt lat="56.899832117024" lon="14.829132841147">
        <ele>169.8</ele>
        <time>2019-10-22T18:14:16Z</time>
      </trkpt>
      <trkpt lat="56.899986846898" lon="14.829360996465">
        <ele>170</ele>
        <time>2019-10-22T18:14:25Z</time>
      </trkpt>
      <trkpt lat="56.900053566822" lon="14.829488904259">
        <ele>170.2</ele>
        <time>2019-10-22T18:14:29Z</time>
      </trkpt>
      <trkpt lat="56.900185246471" lon="14.829735918852">
        <ele>171</ele>
        <time>2019-10-22T18:14:36Z</time>
      </trkpt>
      <trkpt lat="56.900270909489" lon="14.829923170498">
        <ele>171.2</ele>
        <time>2019-10-22T18:14:41Z</time>
      </trkpt>
      <trkpt lat="56.900394207238" lon="14.830190804565">
        <ele>171.6</ele>
        <time>2019-10-22T18:14:48Z</time>
      </trkpt>
      <trkpt lat="56.900486324319" lon="14.830500264313">
        <ele>172</ele>
        <time>2019-10-22T18:14:55Z</time>
      </trkpt>
      <trkpt lat="56.900564443627" lon="14.830814082649">
        <ele>172.2</ele>
        <time>2019-10-22T18:15:02Z</time>
      </trkpt>
      <trkpt lat="56.900621692004" lon="14.831040813044">
        <ele>172.4</ele>
        <time>2019-10-22T18:15:07Z</time>
      </trkpt>
      <trkpt lat="56.900707355022" lon="14.831360666348">
        <ele>172</ele>
        <time>2019-10-22T18:15:14Z</time>
      </trkpt>
      <trkpt lat="56.900772817661" lon="14.831698540737">
        <ele>172</ele>
        <time>2019-10-22T18:15:20Z</time>
      </trkpt>
      <trkpt lat="56.900862001077" lon="14.832046557225">
        <ele>171.8</ele>
        <time>2019-10-22T18:15:26Z</time>
      </trkpt>
      <trkpt lat="56.900936264711" lon="14.832547040474">
        <ele>171.8</ele>
        <time>2019-10-22T18:15:32Z</time>
      </trkpt>
      <trkpt lat="56.900921344929" lon="14.83289857736">
        <ele>172</ele>
        <time>2019-10-22T18:15:38Z</time>
      </trkpt>
      <trkpt lat="56.900965433723" lon="14.833218514483">
        <ele>171.8</ele>
        <time>2019-10-22T18:15:44Z</time>
      </trkpt>
      <trkpt lat="56.901033746208" lon="14.833544067479">
        <ele>172.2</ele>
        <time>2019-10-22T18:15:51Z</time>
      </trkpt>
      <trkpt lat="56.901041373737" lon="14.833811701546">
        <ele>172.8</ele>
        <time>2019-10-22T18:15:58Z</time>
      </trkpt>
      <trkpt lat="56.901033662389" lon="14.833857382901">
        <ele>172.8</ele>
        <time>2019-10-22T18:16:01Z</time>
      </trkpt>
      <trkpt lat="56.90103022581" lon="14.833887473922">
        <ele>172.6</ele>
        <time>2019-10-22T18:16:04Z</time>
      </trkpt>
      <trkpt lat="56.901038859167" lon="14.834008089463">
        <ele>172.2</ele>
        <time>2019-10-22T18:16:10Z</time>
      </trkpt>
      <trkpt lat="56.90103860771" lon="14.834053351723">
        <ele>172.2</ele>
        <time>2019-10-22T18:16:12Z</time>
      </trkpt>
      <trkpt lat="56.901038020977" lon="14.834099284535">
        <ele>172.2</ele>
        <time>2019-10-22T18:16:14Z</time>
      </trkpt>
      <trkpt lat="56.901030561086" lon="14.834149575935">
        <ele>172.2</ele>
        <time>2019-10-22T18:16:16Z</time>
      </trkpt>
      <trkpt lat="56.901006085938" lon="14.834245045776">
        <ele>172.4</ele>
        <time>2019-10-22T18:16:21Z</time>
      </trkpt>
      <trkpt lat="56.90100424192" lon="14.834250829287">
        <ele>172.4</ele>
        <time>2019-10-22T18:16:22Z</time>
      </trkpt>
      <trkpt lat="56.901006085938" lon="14.834252589486">
        <ele>172.4</ele>
        <time>2019-10-22T18:16:23Z</time>
      </trkpt>
    </trkseg>
  </trk>
</gpx>